createdAt,value
2022-08-04T00:00:00.934Z,99061.00
2022-08-04T00:02:37.718Z,99057.84
2022-08-04T00:05:06.215Z,99060.19
2022-08-04T00:07:42.567Z,99062.16
2022-08-04T00:10:16.414Z,99058.63
2022-08-04T00:12:48.754Z,99057.78
2022-08-04T00:15:17.404Z,99057.03
2022-08-04T00:17:49.177Z,99061.34
2022-08-04T00:20:18.544Z,99065.25
2022-08-04T00:22:46.771Z,99063.28
2022-08-04T00:25:13.613Z,99067.22
2022-08-04T00:27:40.413Z,99056.97
2022-08-04T00:30:07.745Z,99056.97
2022-08-04T00:32:34.976Z,99065.63
2022-08-04T00:35:02.266Z,99058.53
2022-08-04T00:37:28.917Z,99061.25
2022-08-04T00:39:56.909Z,99062.44
2022-08-04T00:42:37.708Z,99058.44
2022-08-04T00:46:16.343Z,99060.03
2022-08-04T00:48:31.699Z,99065.16
2022-08-04T00:51:13.463Z,99056.06
2022-08-04T00:54:03.007Z,99062.75
2022-08-04T00:56:39.683Z,99059.59
2022-08-04T00:59:30.222Z,99064.28
2022-08-04T01:02:05.645Z,99063.06
2022-08-04T01:04:41.251Z,99057.56
2022-08-04T01:07:25.487Z,99060.66
2022-08-04T01:09:54.737Z,99059.06
2022-08-04T01:12:24.276Z,99054.34
2022-08-04T01:14:59.831Z,99059.44
2022-08-04T01:17:43.725Z,99062.59
2022-08-04T01:20:12.071Z,99059.03
2022-08-04T01:23:06.744Z,99064.53
2022-08-04T01:25:45.152Z,99054.22
2022-08-04T01:28:11.660Z,99047.13
2022-08-04T01:30:43.206Z,99058.16
2022-08-04T01:33:14.280Z,99060.50
2022-08-04T01:35:48.394Z,99060.50
2022-08-04T01:38:45.299Z,99057.34
2022-08-04T01:41:19.206Z,99055.75
2022-08-04T01:44:02.020Z,99052.97
2022-08-04T01:46:34.183Z,99057.66
2022-08-04T01:49:02.890Z,99057.63
2022-08-04T01:51:36.052Z,99052.09
2022-08-04T01:54:02.840Z,99056.41
2022-08-04T01:56:31.208Z,99052.47
2022-08-04T01:58:58.136Z,99045.38
2022-08-04T02:01:25.422Z,99044.56
2022-08-04T02:04:20.505Z,99048.84
2022-08-04T02:06:38.585Z,99048.44
2022-08-04T02:09:17.718Z,99044.91
2022-08-04T02:12:06.831Z,99046.47
2022-08-04T02:14:53.543Z,99042.94
2022-08-04T02:17:30.263Z,99037.44
2022-08-04T02:20:19.249Z,99042.13
2022-08-04T02:23:07.138Z,99041.28
2022-08-04T02:25:43.399Z,99028.28
2022-08-04T02:28:17.481Z,99029.84
2022-08-04T02:30:50.265Z,99029.06
2022-08-04T02:33:24.042Z,99034.94
2022-08-04T02:35:55.633Z,99030.22
2022-08-04T02:38:34.875Z,99031.78
2022-08-04T02:41:02.315Z,99028.59
2022-08-04T02:43:51.931Z,99021.53
2022-08-04T02:46:21.807Z,99028.19
2022-08-04T02:48:51.076Z,99030.94
2022-08-04T02:51:23.568Z,99032.13
2022-08-04T02:53:53.613Z,99030.09
2022-08-04T02:56:21.715Z,99025.34
2022-08-04T02:58:59.797Z,99028.44
2022-08-04T03:01:27.008Z,99021.34
2022-08-04T03:04:05.384Z,99028.44
2022-08-04T03:06:52.951Z,99022.06
2022-08-04T03:09:39.375Z,99024.03
2022-08-04T03:13:01.497Z,99022.06
2022-08-04T03:16:10.036Z,99027.53
2022-08-04T03:19:03.827Z,99024.38
2022-08-04T03:22:08.885Z,99033.00
2022-08-04T03:24:38.097Z,99037.72
2022-08-04T03:27:10.498Z,99041.59
2022-08-04T03:29:55.749Z,99044.31
2022-08-04T03:32:56.742Z,99037.63
2022-08-04T03:36:07.298Z,99043.88
2022-08-04T03:38:45.843Z,99035.22
2022-08-04T03:42:04.287Z,99037.13
2022-08-04T03:44:55.948Z,99040.22
2022-08-04T03:47:47.349Z,99038.97
2022-08-04T03:50:25.894Z,99037.00
2022-08-04T03:53:14.439Z,99038.91
2022-08-04T03:56:23.883Z,99041.22
2022-08-04T03:59:12.625Z,99032.56
2022-08-04T04:02:10.043Z,99041.22
2022-08-04T04:05:02.460Z,99038.28
2022-08-04T04:08:12.495Z,99034.75
2022-08-04T04:11:22.743Z,99042.88
2022-08-04T04:14:08.064Z,99052.03
2022-08-04T04:16:41.250Z,99040.59
2022-08-04T04:19:36.913Z,99049.25
2022-08-04T04:22:15.493Z,99046.91
2022-08-04T04:25:12.732Z,99046.94
2022-08-04T04:28:44.384Z,99045.84
2022-08-04T04:31:41.389Z,99047.50
2022-08-04T04:34:25.857Z,99054.53
2022-08-04T04:37:07.593Z,99052.97
2022-08-04T04:39:39.959Z,99054.88
2022-08-04T04:42:25.091Z,99054.28
2022-08-04T04:45:10.597Z,99045.75
2022-08-04T04:48:08.033Z,99044.66
2022-08-04T04:50:42.120Z,99053.81
2022-08-04T04:53:27.627Z,99049.09
2022-08-04T04:56:03.509Z,99058.22
2022-08-04T04:58:34.278Z,99057.03
2022-08-04T05:01:33.896Z,99058.63
2022-08-04T05:04:18.721Z,99062.59
2022-08-04T05:07:03.914Z,99060.25
2022-08-04T05:09:52.256Z,99057.13
2022-08-04T05:14:37.122Z,99061.88
2022-08-04T05:15:56.156Z,99060.28
2022-08-04T05:18:27.231Z,99049.22
2022-08-04T05:20:58.458Z,99061.47
2022-08-04T05:23:28.999Z,99059.47
2022-08-04T05:26:07.675Z,99061.47
2022-08-04T05:28:41.852Z,99063.81
2022-08-04T05:31:23.368Z,99065.41
2022-08-04T05:34:03.398Z,99063.03
2022-08-04T05:36:52.269Z,99067.38
2022-08-04T05:39:34.134Z,99063.81
2022-08-04T05:42:04.319Z,99062.63
2022-08-04T05:44:33.871Z,99066.97
2022-08-04T05:47:01.867Z,99068.13
2022-08-04T05:49:29.387Z,99072.91
2022-08-04T05:52:00.333Z,99063.81
2022-08-04T05:54:28.959Z,99062.63
2022-08-04T05:56:57.384Z,99068.94
2022-08-04T05:59:25.924Z,99063.03
2022-08-04T06:01:57.679Z,99074.09
2022-08-04T06:04:54.021Z,99069.34
2022-08-04T06:07:20.958Z,99068.91
2022-08-04T06:09:47.977Z,99070.47
2022-08-04T06:12:31.047Z,99067.69
2022-08-04T06:15:00.259Z,99068.84
2022-08-04T06:19:10.078Z,99063.34
2022-08-04T06:20:37.353Z,99060.97
2022-08-04T06:23:08.640Z,99059.38
2022-08-04T06:25:41.479Z,99065.69
2022-08-04T06:28:08.628Z,99064.13
2022-08-04T06:30:37.219Z,99064.13
2022-08-04T06:33:13.901Z,99067.66
2022-08-04T06:35:41.141Z,99063.28
2022-08-04T06:38:09.546Z,99066.47
2022-08-04T06:40:36.348Z,99065.63
2022-08-04T06:43:07.028Z,99069.91
2022-08-04T06:45:37.028Z,99063.13
2022-08-04T06:48:06.513Z,99064.69
2022-08-04T06:51:29.205Z,99071.75
2022-08-04T06:53:24.411Z,99067.38
2022-08-04T06:55:52.604Z,99055.06
2022-08-04T06:58:20.749Z,99061.00
2022-08-04T07:00:48.477Z,99071.66
2022-08-04T07:03:17.903Z,99067.69
2022-08-04T07:05:47.282Z,99068.38
2022-08-04T07:08:14.418Z,99073.00
2022-08-04T07:10:41.335Z,99065.03
2022-08-04T07:13:09.534Z,99064.94
2022-08-04T07:15:39.119Z,99073.59
2022-08-04T07:18:05.830Z,99056.94
2022-08-04T07:20:35.976Z,99065.53
2022-08-04T07:23:05.903Z,99069.13
2022-08-04T07:26:00.014Z,99064.88
2022-08-04T07:28:25.184Z,99064.88
2022-08-04T07:30:53.700Z,99070.22
2022-08-04T07:33:20.959Z,99062.56
2022-08-04T07:36:04.838Z,99066.06
2022-08-04T07:38:37.399Z,99063.63
2022-08-04T07:41:35.324Z,99052.34
2022-08-04T07:43:54.837Z,99064.06
2022-08-04T07:46:21.516Z,99058.38
2022-08-04T07:48:48.517Z,99059.16
2022-08-04T07:51:16.630Z,99053.13
2022-08-04T07:53:55.012Z,99067.78
2022-08-04T07:56:22.954Z,99068.59
2022-08-04T07:58:50.520Z,99070.06
2022-08-04T08:01:17.551Z,99064.25
2022-08-04T08:03:44.362Z,99045.31
2022-08-04T08:06:31.105Z,99056.16
2022-08-04T08:09:02.107Z,99059.53
2022-08-04T08:12:37.369Z,99064.72
2022-08-04T08:14:28.430Z,99064.31
2022-08-04T08:16:55.189Z,99054.53
2022-08-04T08:19:22.017Z,99068.69
2022-08-04T08:21:58.956Z,99064.72
2022-08-04T08:24:31.409Z,99060.84
2022-08-04T08:26:58.941Z,99064.16
2022-08-04T08:29:26.784Z,99057.81
2022-08-04T08:31:58.368Z,99062.38
2022-08-04T08:34:29.538Z,99054.88
2022-08-04T08:37:22.923Z,99054.66
2022-08-04T08:39:58.247Z,99053.47
2022-08-04T08:43:00.135Z,99065.13
2022-08-04T08:46:45.357Z,99060.19
2022-08-04T08:50:00.361Z,99054.16
2022-08-04T08:53:00.553Z,99054.19
2022-08-04T08:55:40.044Z,99051.91
2022-08-04T08:58:25.018Z,99043.53
2022-08-04T09:01:02.907Z,99047.22
2022-08-04T09:04:03.783Z,99054.44
2022-08-04T09:07:01.617Z,99038.69
2022-08-04T09:09:52.525Z,99046.94
2022-08-04T09:12:32.860Z,99045.75
2022-08-04T09:15:22.127Z,99042.66
2022-08-04T09:17:57.358Z,99044.16
2022-08-04T09:20:59.357Z,99047.75
2022-08-04T09:23:41.271Z,99049.34
2022-08-04T09:26:26.703Z,99057.94
2022-08-04T09:29:11.031Z,99052.75
2022-08-04T09:32:07.033Z,99050.81
2022-08-04T09:35:15.360Z,99050.47
2022-08-04T09:37:45.831Z,99047.88
2022-08-04T09:40:31.903Z,99050.47
2022-08-04T09:43:28.063Z,99053.75
2022-08-04T09:46:26.217Z,99046.88
2022-08-04T09:49:05.062Z,99041.97
2022-08-04T09:51:58.738Z,99038.16
2022-08-04T09:54:53.360Z,99037.22
2022-08-04T09:57:32.082Z,99026.69
2022-08-04T10:00:13.584Z,99031.47
2022-08-04T10:02:47.077Z,99039.03
2022-08-04T10:05:18.643Z,99032.09
2022-08-04T10:08:15.716Z,99021.31
2022-08-04T10:11:02.083Z,99027.88
2022-08-04T10:13:31.703Z,99018.56
2022-08-04T10:16:17.234Z,99018.25
2022-08-04T10:19:34.309Z,99016.13
2022-08-04T10:22:29.455Z,99009.53
2022-08-04T10:26:03.263Z,99001.16
2022-08-04T10:28:17.359Z,99001.19
2022-08-04T10:30:50.014Z,98996.22
2022-08-04T10:33:32.983Z,98987.75
2022-08-04T10:36:04.001Z,98991.94
2022-08-04T10:38:35.533Z,98992.97
2022-08-04T10:41:08.531Z,98973.81
2022-08-04T10:44:14.677Z,98975.22
2022-08-04T10:46:53.001Z,98979.19
2022-08-04T10:49:29.863Z,98961.63
2022-08-04T10:52:08.693Z,98959.69
2022-08-04T10:54:55.851Z,98958.38
2022-08-04T10:57:36.070Z,98960.53
2022-08-04T11:00:09.156Z,98954.25
2022-08-04T11:03:17.279Z,98958.28
2022-08-04T11:05:55.020Z,98948.25
2022-08-04T11:08:26.924Z,98950.31
2022-08-04T11:11:01.408Z,98948.75
2022-08-04T11:14:11.662Z,98956.34
2022-08-04T11:16:59.108Z,98954.22
2022-08-04T11:19:42.753Z,98953.00
2022-08-04T11:22:20.295Z,98958.50
2022-08-04T11:25:15.898Z,98957.94
2022-08-04T11:27:53.949Z,98954.69
2022-08-04T11:30:20.773Z,98954.22
2022-08-04T11:33:02.055Z,98951.88
2022-08-04T11:35:34.686Z,98962.97
2022-08-04T11:38:38.780Z,98960.22
2022-08-04T11:41:10.915Z,98956.31
2022-08-04T11:44:03.221Z,98960.50
2022-08-04T11:46:40.015Z,98964.25
2022-08-04T11:49:56.405Z,98970.59
2022-08-04T11:52:26.347Z,98971.34
2022-08-04T11:54:55.122Z,98963.16
2022-08-04T11:57:36.067Z,98967.16
2022-08-04T12:00:07.722Z,98967.81
2022-08-04T12:03:12.157Z,98963.94
2022-08-04T12:06:06.784Z,98967.06
2022-08-04T12:08:50.055Z,98963.16
2022-08-04T12:11:55.393Z,98964.25
2022-08-04T12:14:38.911Z,98961.84
2022-08-04T12:17:06.276Z,98964.31
2022-08-04T12:20:05.213Z,98967.78
2022-08-04T12:22:44.197Z,98975.09
2022-08-04T12:25:18.121Z,98966.59
2022-08-04T12:28:02.986Z,98975.72
2022-08-04T12:30:58.760Z,98971.25
2022-08-04T12:33:24.140Z,98960.28
2022-08-04T12:36:22.190Z,98968.81
2022-08-04T12:39:17.978Z,98961.63
2022-08-04T12:42:11.391Z,98967.84
2022-08-04T12:44:41.094Z,98955.44
2022-08-04T12:47:26.446Z,98961.50
2022-08-04T12:50:01.990Z,98971.34
2022-08-04T12:52:59.235Z,98963.56
2022-08-04T12:55:23.950Z,98970.00
2022-08-04T12:57:52.143Z,98960.25
2022-08-04T13:00:40.553Z,98957.41
2022-08-04T13:03:16.825Z,98948.78
2022-08-04T13:05:45.472Z,98950.97
2022-08-04T13:08:13.606Z,98939.00
2022-08-04T13:10:47.132Z,98940.97
2022-08-04T13:13:17.605Z,98948.75
2022-08-04T13:15:56.904Z,98935.81
2022-08-04T13:18:29.550Z,98930.03
2022-08-04T13:21:19.645Z,98934.38
2022-08-04T13:24:09.989Z,98934.97
2022-08-04T13:26:42.869Z,98928.19
2022-08-04T13:29:22.625Z,98929.50
2022-08-04T13:32:11.040Z,98923.13
2022-08-04T13:34:41.178Z,98918.03
2022-08-04T13:37:20.914Z,98926.59
2022-08-04T13:39:55.586Z,98917.00
2022-08-04T13:42:26.022Z,98915.53
2022-08-04T13:44:59.509Z,98924.88
2022-08-04T13:47:34.206Z,98921.19
2022-08-04T13:50:15.670Z,98918.84
2022-08-04T13:52:43.957Z,98917.75
2022-08-04T13:55:26.353Z,98912.19
2022-08-04T13:57:58.419Z,98905.72
2022-08-04T14:00:29.258Z,98904.34
2022-08-04T14:03:03.656Z,98900.41
2022-08-04T14:06:07.071Z,98909.03
2022-08-04T14:08:42.831Z,98895.03
2022-08-04T14:11:09.821Z,98888.75
2022-08-04T14:13:56.425Z,98889.19
2022-08-04T14:16:23.165Z,98897.50
2022-08-04T14:19:00.046Z,98882.31
2022-08-04T14:21:26.824Z,98884.72
2022-08-04T14:23:56.792Z,98876.81
2022-08-04T14:26:32.501Z,98882.66
2022-08-04T14:29:27.251Z,98891.16
2022-08-04T14:32:11.456Z,98881.13
2022-08-04T14:34:42.616Z,98880.88
2022-08-04T14:37:17.143Z,98890.41
2022-08-04T14:40:17.786Z,98887.34
2022-08-04T14:42:54.516Z,98879.06
2022-08-04T14:45:35.510Z,98888.84
2022-08-04T14:48:06.967Z,98881.88
2022-08-04T14:50:45.446Z,98877.50
2022-08-04T14:53:26.432Z,98888.59
2022-08-04T14:55:57.022Z,98868.00
2022-08-04T14:58:34.692Z,98873.38
2022-08-04T15:01:11.000Z,98868.19
2022-08-04T15:03:50.402Z,98869.97
2022-08-04T15:06:26.308Z,98862.91
2022-08-04T15:08:56.432Z,98869.69
2022-08-04T15:11:24.170Z,98870.28
2022-08-04T15:13:56.387Z,98877.28
2022-08-04T15:16:25.052Z,98877.94
2022-08-04T15:18:54.885Z,98879.34
2022-08-04T15:21:25.937Z,98877.97
2022-08-04T15:23:52.827Z,98872.56
2022-08-04T15:26:49.621Z,98872.53
2022-08-04T15:29:20.726Z,98883.72
2022-08-04T15:32:07.044Z,98877.59
2022-08-04T15:34:51.824Z,98879.66
2022-08-04T15:37:26.440Z,98884.63
2022-08-04T15:40:01.117Z,98881.88
2022-08-04T15:42:32.697Z,98879.00
2022-08-04T15:45:05.776Z,98874.16
2022-08-04T15:47:32.405Z,98877.25
2022-08-04T15:50:03.525Z,98863.97
2022-08-04T15:52:32.090Z,98863.94
2022-08-04T15:55:34.784Z,98854.44
2022-08-04T15:58:04.657Z,98855.03
2022-08-04T16:00:49.760Z,98859.53
2022-08-04T16:03:58.582Z,98848.38
2022-08-04T16:06:22.257Z,98848.44
2022-08-04T16:08:57.692Z,98848.50
2022-08-04T16:11:32.599Z,98854.94
2022-08-04T16:13:59.783Z,98850.50
2022-08-04T16:16:31.774Z,98848.50
2022-08-04T16:19:10.030Z,98838.94
2022-08-04T16:21:50.896Z,98840.47
2022-08-04T16:24:21.498Z,98850.38
2022-08-04T16:26:58.830Z,98845.50
2022-08-04T16:29:34.507Z,98845.22
2022-08-04T16:32:16.605Z,98847.31
2022-08-04T16:34:54.499Z,98847.47
2022-08-04T16:37:43.138Z,98850.03
2022-08-04T16:40:31.750Z,98847.78
2022-08-04T16:43:08.030Z,98851.09
2022-08-04T16:45:50.952Z,98855.41
2022-08-04T16:48:19.735Z,98844.72
2022-08-04T16:51:06.872Z,98848.31
2022-08-04T16:54:03.709Z,98849.97
2022-08-04T16:56:33.602Z,98845.91
2022-08-04T16:59:11.332Z,98845.81
2022-08-04T17:01:51.147Z,98839.59
2022-08-04T17:04:18.091Z,98849.94
2022-08-04T17:06:49.515Z,98845.50
2022-08-04T17:09:18.311Z,98842.91
2022-08-04T17:11:47.489Z,98849.75
2022-08-04T17:14:21.762Z,98847.28
2022-08-04T17:16:48.640Z,98851.47
2022-08-04T17:19:24.005Z,98856.72
2022-08-04T17:22:02.354Z,98849.88
2022-08-04T17:24:31.457Z,98845.41
2022-08-04T17:26:58.963Z,98858.38
2022-08-04T17:32:21.194Z,98856.81
2022-08-04T17:34:54.320Z,98858.06
2022-08-04T17:37:51.899Z,98859.28
2022-08-04T17:40:13.468Z,98856.88
2022-08-04T17:42:41.536Z,98857.75
2022-08-04T17:48:24.724Z,98864.56
2022-08-04T17:50:51.900Z,98853.94
2022-08-04T17:53:52.925Z,98853.78
2022-08-04T17:56:51.786Z,98855.31
2022-08-04T17:59:55.995Z,98854.84
2022-08-04T18:02:08.818Z,98858.59
2022-08-04T18:05:05.333Z,98849.34
2022-08-04T18:08:38.395Z,98866.75
2022-08-04T18:10:52.527Z,98877.66
2022-08-04T18:13:27.207Z,98875.59
2022-08-04T18:16:02.533Z,98869.59
2022-08-04T18:18:29.796Z,98879.53
2022-08-04T18:20:59.767Z,98880.41
2022-08-04T18:23:31.773Z,98893.94
2022-08-04T18:26:02.465Z,98886.28
2022-08-04T18:28:31.311Z,98893.00
2022-08-04T18:31:00.832Z,98890.50
2022-08-04T18:33:37.460Z,98892.94
2022-08-04T18:38:58.205Z,98893.94
2022-08-04T18:41:26.684Z,98900.03
2022-08-04T18:43:55.782Z,98902.41
2022-08-04T18:46:26.996Z,98910.28
2022-08-04T18:48:54.349Z,98905.19
2022-08-04T18:51:30.650Z,98909.97
2022-08-04T18:53:59.061Z,98906.88
2022-08-04T18:56:32.590Z,98908.88
2022-08-04T18:59:04.847Z,98914.06
2022-08-04T19:02:12.344Z,98923.63
2022-08-04T19:04:33.229Z,98923.31
2022-08-04T19:07:23.464Z,98924.84
2022-08-04T19:09:51.826Z,98929.19
2022-08-04T19:12:26.378Z,98938.19
2022-08-04T19:14:58.259Z,98940.06
2022-08-04T19:17:54.067Z,98943.38
2022-08-04T19:20:15.828Z,98956.84
2022-08-04T19:25:58.933Z,98954.44
2022-08-04T19:28:29.913Z,98970.50
2022-08-04T19:30:58.948Z,98977.81
2022-08-04T19:33:28.524Z,98975.22
2022-08-04T19:36:12.437Z,98986.97
2022-08-04T19:38:39.236Z,99000.66
2022-08-04T19:41:14.347Z,98988.81
2022-08-04T19:43:43.990Z,98994.47
2022-08-04T19:46:12.185Z,99003.44
2022-08-04T19:48:39.730Z,99013.22
2022-08-04T19:51:07.828Z,99010.22
2022-08-04T19:53:38.163Z,99017.69
2022-08-04T19:56:10.183Z,99023.16
2022-08-04T19:58:38.637Z,99032.97
2022-08-04T20:01:05.274Z,99031.19
2022-08-04T20:04:10.469Z,99030.47
2022-08-04T20:06:38.005Z,99043.31
2022-08-04T20:09:04.586Z,99038.66
2022-08-04T20:11:51.228Z,99046.03
2022-08-04T20:14:17.876Z,99057.31
2022-08-04T20:16:46.392Z,99062.22
2022-08-04T20:19:14.258Z,99073.91
2022-08-04T20:21:54.784Z,99061.72
2022-08-04T20:24:38.909Z,99082.13
2022-08-04T20:27:14.903Z,99085.03
2022-08-04T20:29:49.938Z,99078.03
2022-08-04T20:32:19.338Z,99084.09
2022-08-04T20:34:46.989Z,99079.44
2022-08-04T20:37:15.378Z,99075.97
2022-08-04T20:39:42.418Z,99076.09
2022-08-04T20:42:11.529Z,99077.38
2022-08-04T20:44:42.179Z,99077.06
2022-08-04T20:47:20.470Z,99085.44
2022-08-04T20:49:49.027Z,99094.53
2022-08-04T20:52:20.213Z,99100.16
2022-08-04T20:54:48.111Z,99115.22
2022-08-04T20:57:16.898Z,99140.25
2022-08-04T20:59:50.326Z,99147.84
2022-08-04T21:02:27.169Z,99168.53
2022-08-04T21:04:53.880Z,99231.34
2022-08-04T21:07:22.249Z,99257.66
2022-08-04T21:09:50.695Z,99252.16
2022-08-04T21:12:28.322Z,99237.09
2022-08-04T21:15:01.578Z,99271.41
2022-08-04T21:17:58.931Z,99260.78
2022-08-04T21:20:28.544Z,99235.16
2022-08-04T21:22:59.596Z,99211.31
2022-08-04T21:25:28.469Z,99168.00
2022-08-04T21:27:55.649Z,99140.38
2022-08-04T21:30:26.705Z,99141.59
2022-08-04T21:32:55.109Z,99135.28
2022-08-04T21:35:36.782Z,99140.03
2022-08-04T21:38:13.949Z,99140.84
2022-08-04T21:40:54.279Z,99153.50
2022-08-04T21:43:23.763Z,99156.66
2022-08-04T21:45:55.038Z,99168.91
2022-08-04T21:48:22.536Z,99189.03
2022-08-04T21:50:50.534Z,99209.97
2022-08-04T21:53:19.838Z,99249.78
2022-08-04T21:56:04.597Z,99252.94
2022-08-04T21:58:36.115Z,99238.72
2022-08-04T22:01:06.079Z,99219.78
2022-08-04T22:03:53.442Z,99194.88
2022-08-04T22:06:28.410Z,99162.50
2022-08-04T22:08:56.866Z,99122.25
2022-08-04T22:11:48.951Z,99099.34
2022-08-04T22:14:16.970Z,99081.59
2022-08-04T22:16:45.256Z,99089.88
2022-08-04T22:19:13.543Z,99084.34
2022-08-04T22:21:46.715Z,99087.09
2022-08-04T22:24:14.506Z,99095.00
2022-08-04T22:26:41.411Z,99091.84
2022-08-04T22:29:14.563Z,99087.88
2022-08-04T22:31:56.369Z,99087.06
2022-08-04T22:34:25.033Z,99098.09
2022-08-04T22:36:53.367Z,99132.78
2022-08-04T22:39:23.556Z,99150.50
2022-08-04T22:42:03.071Z,99150.88
2022-08-04T22:44:33.013Z,99165.44
2022-08-04T22:47:00.541Z,99164.25
2022-08-04T22:49:31.504Z,99160.31
2022-08-04T22:51:58.855Z,99167.03
2022-08-04T22:54:26.121Z,99161.09
2022-08-04T22:56:55.394Z,99149.25
2022-08-04T22:59:23.806Z,99154.78
2022-08-04T23:01:58.659Z,99138.22
2022-08-04T23:04:29.636Z,99125.59
2022-08-04T23:06:56.551Z,99126.00
2022-08-04T23:09:27.052Z,99126.81
2022-08-04T23:12:27.572Z,99120.47
2022-08-04T23:14:58.143Z,99104.31
2022-08-04T23:17:27.834Z,99106.66
2022-08-04T23:19:59.028Z,99079.44
2022-08-04T23:22:41.069Z,99065.63
2022-08-04T23:25:15.235Z,99058.91
2022-08-04T23:27:43.723Z,99058.53
2022-08-04T23:30:11.165Z,99041.16
2022-08-04T23:32:37.847Z,99035.59
2022-08-04T23:35:04.727Z,99026.13
2022-08-04T23:37:35.178Z,99026.13
2022-08-04T23:40:28.087Z,99012.34
2022-08-04T23:42:48.812Z,99005.25
2022-08-04T23:45:15.435Z,99013.53
2022-08-04T23:48:15.843Z,99004.84
2022-08-04T23:50:45.453Z,98991.44
2022-08-04T23:53:18.764Z,98987.50
2022-08-04T23:55:49.156Z,98984.75
2022-08-04T23:58:18.731Z,98980.41
